createdAt,value
2019-06-27T00:00:45.226Z,96051.86
2019-06-27T00:03:12.708Z,96062.54
2019-06-27T00:05:40.183Z,96062.61
2019-06-27T00:08:07.649Z,96057.08
2019-06-27T00:10:35.109Z,96059.02
2019-06-27T00:13:03.254Z,96058.16
2019-06-27T00:15:30.729Z,96064.14
2019-06-27T00:17:58.182Z,96071.00
2019-06-27T00:20:25.629Z,96068.46
2019-06-27T00:22:53.123Z,96060.59
2019-06-27T00:25:20.593Z,96062.17
2019-06-27T00:27:48.013Z,96062.10
2019-06-27T00:30:15.935Z,96062.30
2019-06-27T00:32:43.408Z,96057.03
2019-06-27T00:35:11.008Z,96067.02
2019-06-27T00:37:38.406Z,96058.91
2019-06-27T00:40:06.126Z,96061.42
2019-06-27T00:42:33.552Z,96062.71
2019-06-27T00:45:00.931Z,96072.52
2019-06-27T00:47:28.388Z,96065.51
2019-06-27T00:49:55.803Z,96063.66
2019-06-27T00:52:23.190Z,96069.29
2019-06-27T00:54:50.685Z,96068.51
2019-06-27T00:57:18.115Z,96069.25
2019-06-27T00:59:45.528Z,96063.77
2019-06-27T01:02:13.783Z,96070.30
2019-06-27T01:04:41.192Z,96069.05
2019-06-27T01:07:08.633Z,96058.30
2019-06-27T01:09:36.091Z,96061.45
2019-06-27T01:12:03.494Z,96059.78
2019-06-27T01:14:30.888Z,96055.91
2019-06-27T01:16:58.353Z,96063.08
2019-06-27T01:19:25.758Z,96063.68
2019-06-27T01:21:53.195Z,96053.87
2019-06-27T01:24:20.686Z,96057.95
2019-06-27T01:26:48.157Z,96060.37
2019-06-27T01:29:15.596Z,96056.05
2019-06-27T01:31:43.025Z,96064.42
2019-06-27T01:34:10.423Z,96060.58
2019-06-27T01:36:37.858Z,96068.23
2019-06-27T01:39:05.491Z,96058.23
2019-06-27T01:41:32.948Z,96058.25
2019-06-27T01:44:00.368Z,96044.67
2019-06-27T01:46:27.809Z,96051.59
2019-06-27T01:48:55.220Z,96055.48
2019-06-27T01:51:22.630Z,96053.06
2019-06-27T01:53:50.066Z,96060.39
2019-06-27T01:56:17.505Z,96055.08
2019-06-27T01:58:44.888Z,96060.22
2019-06-27T02:01:12.469Z,96060.72
2019-06-27T02:03:39.878Z,96053.55
2019-06-27T02:06:07.289Z,96044.89
2019-06-27T02:08:34.708Z,96046.84
2019-06-27T02:11:02.160Z,96039.79
2019-06-27T02:13:29.596Z,96036.91
2019-06-27T02:15:57.070Z,96037.44
2019-06-27T02:18:24.483Z,96048.22
2019-06-27T02:20:51.846Z,96050.74
2019-06-27T02:23:19.322Z,96054.23
2019-06-27T02:25:46.731Z,96055.33
2019-06-27T02:28:14.156Z,96045.55
2019-06-27T02:30:42.663Z,96050.05
2019-06-27T02:33:10.193Z,96044.84
2019-06-27T02:35:37.839Z,96045.61
2019-06-27T02:38:05.340Z,96051.30
2019-06-27T02:40:32.871Z,96057.38
2019-06-27T02:43:00.309Z,96058.55
2019-06-27T02:45:27.771Z,96061.31
2019-06-27T02:47:55.152Z,96048.52
2019-06-27T02:50:22.593Z,96052.68
2019-06-27T02:52:50.083Z,96049.91
2019-06-27T02:55:17.693Z,96051.88
2019-06-27T02:57:45.099Z,96057.08
2019-06-27T03:00:12.529Z,96053.05
2019-06-27T03:02:39.910Z,96047.75
2019-06-27T03:05:07.623Z,96053.72
2019-06-27T03:07:35.149Z,96051.08
2019-06-27T03:10:02.674Z,96056.17
2019-06-27T03:12:30.250Z,96054.91
2019-06-27T03:14:57.685Z,96050.58
2019-06-27T03:17:25.185Z,96061.20
2019-06-27T03:19:52.668Z,96059.06
2019-06-27T03:22:20.089Z,96064.52
2019-06-27T03:24:47.528Z,96055.94
2019-06-27T03:27:14.948Z,96063.19
2019-06-27T03:29:42.391Z,96057.56
2019-06-27T03:32:09.983Z,96060.50
2019-06-27T03:34:37.375Z,96061.89
2019-06-27T03:37:04.823Z,96057.73
2019-06-27T03:39:32.207Z,96060.25
2019-06-27T03:41:59.631Z,96059.91
2019-06-27T03:44:27.473Z,96066.08
2019-06-27T03:46:54.869Z,96059.73
2019-06-27T03:49:22.423Z,96067.91
2019-06-27T03:51:49.829Z,96055.91
2019-06-27T03:54:17.235Z,96061.23
2019-06-27T03:56:44.675Z,96068.30
2019-06-27T03:59:13.884Z,96063.23
2019-06-27T04:01:41.530Z,96063.75
2019-06-27T04:04:08.908Z,96068.89
2019-06-27T04:06:36.367Z,96065.16
2019-06-27T04:09:04.414Z,96063.00
2019-06-27T04:11:32.071Z,96062.05
2019-06-27T04:13:59.607Z,96065.56
2019-06-27T04:16:26.996Z,96060.55
2019-06-27T04:18:54.395Z,96066.66
2019-06-27T04:21:21.853Z,96070.06
2019-06-27T04:23:49.269Z,96063.09
2019-06-27T04:26:16.798Z,96059.91
2019-06-27T04:28:44.268Z,96067.32
2019-06-27T04:31:11.677Z,96073.05
2019-06-27T04:33:39.068Z,96071.02
2019-06-27T04:36:06.476Z,96062.96
2019-06-27T04:38:33.886Z,96066.04
2019-06-27T04:41:01.269Z,96064.23
2019-06-27T04:43:28.711Z,96069.91
2019-06-27T04:45:56.149Z,96073.34
2019-06-27T04:48:23.603Z,96069.06
2019-06-27T04:50:51.004Z,96074.02
2019-06-27T04:53:18.388Z,96073.38
2019-06-27T04:55:45.809Z,96069.40
2019-06-27T04:58:13.276Z,96073.52
2019-06-27T05:00:40.671Z,96070.62
2019-06-27T05:03:08.129Z,96065.94
2019-06-27T05:05:35.670Z,96071.67
2019-06-27T05:08:03.135Z,96077.98
2019-06-27T05:10:30.532Z,96071.88
2019-06-27T05:12:57.962Z,96062.73
2019-06-27T05:15:25.391Z,96062.73
2019-06-27T05:17:52.868Z,96065.02
2019-06-27T05:20:20.393Z,96063.09
2019-06-27T05:22:47.771Z,96051.60
2019-06-27T05:25:15.255Z,96055.92
2019-06-27T05:27:42.751Z,96049.05
2019-06-27T05:30:10.812Z,96053.27
2019-06-27T05:32:38.329Z,96049.73
2019-06-27T05:35:05.914Z,96049.89
2019-06-27T05:37:33.295Z,96054.67
2019-06-27T05:40:00.729Z,96048.30
2019-06-27T05:42:28.208Z,96043.98
2019-06-27T05:44:55.644Z,96042.40
2019-06-27T05:47:23.023Z,96037.17
2019-06-27T05:49:50.508Z,96033.05
2019-06-27T05:52:17.929Z,96044.74
2019-06-27T05:54:45.315Z,96034.34
2019-06-27T05:57:12.804Z,96037.05
2019-06-27T05:59:40.196Z,96038.88
2019-06-27T06:02:07.629Z,96036.58
2019-06-27T06:04:35.095Z,96038.92
2019-06-27T06:07:02.501Z,96034.32
2019-06-27T06:09:32.894Z,96030.25
2019-06-27T06:11:59.309Z,96022.17
2019-06-27T06:14:26.691Z,96030.84
2019-06-27T06:16:54.077Z,96032.91
2019-06-27T06:19:21.528Z,96032.28
2019-06-27T06:21:48.908Z,96023.50
2019-06-27T06:24:16.335Z,96031.00
2019-06-27T06:26:43.779Z,96031.84
2019-06-27T06:29:11.192Z,96023.52
2019-06-27T06:31:38.751Z,96016.69
2019-06-27T06:34:06.487Z,96020.66
2019-06-27T06:36:33.862Z,96016.31
2019-06-27T06:39:01.266Z,96019.67
2019-06-27T06:41:28.773Z,96010.56
2019-06-27T06:43:56.252Z,96010.62
2019-06-27T06:46:23.739Z,96010.92
2019-06-27T06:48:51.261Z,96000.79
2019-06-27T06:51:18.718Z,96005.36
2019-06-27T06:53:46.232Z,95993.82
2019-06-27T06:56:13.710Z,95986.88
2019-06-27T06:58:41.161Z,95985.55
2019-06-27T07:01:08.607Z,95978.75
2019-06-27T07:03:36.140Z,95979.66
2019-06-27T07:06:03.554Z,95969.17
2019-06-27T07:08:30.990Z,95976.31
2019-06-27T07:10:58.442Z,95965.53
2019-06-27T07:13:25.850Z,95966.38
2019-06-27T07:15:53.271Z,95970.92
2019-06-27T07:18:20.768Z,95957.69
2019-06-27T07:20:48.214Z,95962.31
2019-06-27T07:23:15.611Z,95961.28
2019-06-27T07:25:43.087Z,95958.83
2019-06-27T07:28:10.471Z,95962.34
2019-06-27T07:30:37.989Z,95963.20
2019-06-27T07:33:05.427Z,95963.20
2019-06-27T07:35:32.830Z,95954.02
2019-06-27T07:38:00.348Z,95948.06
2019-06-27T07:40:27.827Z,95952.01
2019-06-27T07:42:55.256Z,95945.61
2019-06-27T07:45:22.770Z,95946.87
2019-06-27T07:47:50.338Z,95935.48
2019-06-27T07:50:17.890Z,95931.75
2019-06-27T07:52:45.488Z,95934.23
2019-06-27T07:55:13.210Z,95923.84
2019-06-27T07:57:40.830Z,95921.73
2019-06-27T08:00:08.975Z,95916.96
2019-06-27T08:02:36.411Z,95913.60
2019-06-27T08:05:04.707Z,95913.65
2019-06-27T08:07:32.125Z,95909.25
2019-06-27T08:09:59.589Z,95897.45
2019-06-27T08:12:27.027Z,95903.68
2019-06-27T08:14:54.435Z,95888.22
2019-06-27T08:17:21.866Z,95891.52
2019-06-27T08:19:49.269Z,95890.16
2019-06-27T08:22:16.689Z,95891.17
2019-06-27T08:24:44.135Z,95877.50
2019-06-27T08:27:11.548Z,95878.19
2019-06-27T08:29:38.958Z,95880.45
2019-06-27T08:32:06.415Z,95875.05
2019-06-27T08:34:34.012Z,95868.63
2019-06-27T08:37:01.491Z,95857.50
2019-06-27T08:39:28.984Z,95853.61
2019-06-27T08:41:56.588Z,95861.77
2019-06-27T08:44:24.111Z,95854.91
2019-06-27T08:46:51.628Z,95854.84
2019-06-27T08:49:19.053Z,95852.73
2019-06-27T08:51:46.428Z,95849.56
2019-06-27T08:54:13.879Z,95848.62
2019-06-27T08:56:41.305Z,95847.09
2019-06-27T08:59:08.739Z,95845.20
2019-06-27T09:01:36.292Z,95848.82
2019-06-27T09:04:03.851Z,95850.78
2019-06-27T09:06:31.294Z,95844.92
2019-06-27T09:08:58.721Z,95840.07
2019-06-27T09:11:26.476Z,95831.25
2019-06-27T09:13:53.874Z,95834.70
2019-06-27T09:16:21.370Z,95831.90
2019-06-27T09:18:48.791Z,95833.60
2019-06-27T09:21:16.239Z,95828.08
2019-06-27T09:23:43.784Z,95824.55
2019-06-27T09:26:11.239Z,95828.53
2019-06-27T09:28:38.723Z,95829.48
2019-06-27T09:31:06.258Z,95816.72
2019-06-27T09:33:33.706Z,95816.77
2019-06-27T09:36:01.233Z,95813.05
2019-06-27T09:38:28.696Z,95810.95
2019-06-27T09:40:56.086Z,95804.20
2019-06-27T09:43:23.680Z,95806.99
2019-06-27T09:45:51.177Z,95804.09
2019-06-27T09:48:18.656Z,95800.55
2019-06-27T09:50:46.238Z,95797.98
2019-06-27T09:53:13.771Z,95799.04
2019-06-27T09:55:41.234Z,95793.37
2019-06-27T09:58:08.664Z,95794.31
2019-06-27T10:00:36.146Z,95795.23
2019-06-27T10:03:03.734Z,95790.27
2019-06-27T10:05:31.154Z,95786.42
2019-06-27T10:07:58.655Z,95785.27
2019-06-27T10:10:26.170Z,95782.13
2019-06-27T10:12:53.631Z,95779.27
2019-06-27T10:15:21.249Z,95770.58
2019-06-27T10:17:48.841Z,95771.86
2019-06-27T10:20:16.371Z,95762.28
2019-06-27T10:22:44.032Z,95756.61
2019-06-27T10:25:11.966Z,95763.86
2019-06-27T10:27:39.427Z,95760.98
2019-06-27T10:30:07.908Z,95747.72
2019-06-27T10:32:35.350Z,95741.78
2019-06-27T10:35:02.883Z,95749.67
2019-06-27T10:37:30.371Z,95743.53
2019-06-27T10:39:57.856Z,95742.70
2019-06-27T10:42:25.289Z,95736.97
2019-06-27T10:44:52.801Z,95736.98
2019-06-27T10:47:20.256Z,95737.98
2019-06-27T10:49:47.667Z,95731.63
2019-06-27T10:52:15.193Z,95729.44
2019-06-27T10:54:42.642Z,95725.63
2019-06-27T10:57:10.041Z,95721.80
2019-06-27T10:59:37.562Z,95722.73
2019-06-27T11:02:05.253Z,95709.47
2019-06-27T11:04:32.717Z,95706.97
2019-06-27T11:07:00.169Z,95693.56
2019-06-27T11:09:27.633Z,95694.61
2019-06-27T11:11:55.049Z,95685.48
2019-06-27T11:14:22.519Z,95692.25
2019-06-27T11:16:49.913Z,95698.19
2019-06-27T11:19:17.347Z,95698.61
2019-06-27T11:21:44.859Z,95691.17
2019-06-27T11:24:12.304Z,95687.20
2019-06-27T11:26:39.750Z,95673.59
2019-06-27T11:29:07.428Z,95677.27
2019-06-27T11:31:35.036Z,95689.09
2019-06-27T11:34:02.471Z,95690.64
2019-06-27T11:36:29.955Z,95684.59
2019-06-27T11:38:57.422Z,95680.20
2019-06-27T11:41:24.931Z,95675.66
2019-06-27T11:43:52.439Z,95671.89
2019-06-27T11:46:19.912Z,95663.16
2019-06-27T11:48:47.332Z,95668.06
2019-06-27T11:51:15.176Z,95666.16
2019-06-27T11:53:42.637Z,95677.78
2019-06-27T11:56:10.133Z,95676.60
2019-06-27T11:58:37.729Z,95671.22
2019-06-27T12:01:05.118Z,95659.50
2019-06-27T12:03:48.221Z,95662.70
2019-06-27T12:06:02.435Z,95665.52
2019-06-27T12:08:30.041Z,95662.02
2019-06-27T12:10:58.174Z,95668.86
2019-06-27T12:13:25.606Z,95656.19
2019-06-27T12:15:53.011Z,95655.80
2019-06-27T12:18:23.493Z,95659.91
2019-06-27T12:20:51.000Z,95651.30
2019-06-27T12:23:19.244Z,95649.66
2019-06-27T12:25:49.748Z,95664.39
2019-06-27T12:28:17.229Z,95663.83
2019-06-27T12:30:44.799Z,95661.73
2019-06-27T12:33:12.313Z,95643.58
2019-06-27T12:35:39.828Z,95651.33
2019-06-27T12:38:07.536Z,95652.11
2019-06-27T12:40:35.090Z,95656.69
2019-06-27T12:43:02.637Z,95653.78
2019-06-27T12:45:30.312Z,95660.62
2019-06-27T12:48:06.494Z,95643.67
2019-06-27T12:50:29.474Z,95648.62
2019-06-27T12:52:57.022Z,95630.27
2019-06-27T12:55:24.502Z,95631.62
2019-06-27T12:57:52.016Z,95627.70
2019-06-27T13:00:19.640Z,95629.03
2019-06-27T13:02:47.124Z,95623.70
2019-06-27T13:05:14.716Z,95620.84
2019-06-27T13:07:42.177Z,95615.24
2019-06-27T13:10:09.996Z,95617.70
2019-06-27T13:12:37.750Z,95620.73
2019-06-27T13:15:13.616Z,95621.70
2019-06-27T13:17:41.511Z,95620.97
2019-06-27T13:20:09.061Z,95618.09
2019-06-27T13:22:38.223Z,95610.39
2019-06-27T13:25:05.908Z,95610.48
2019-06-27T13:27:33.538Z,95605.25
2019-06-27T13:30:01.070Z,95604.92
2019-06-27T13:32:28.548Z,95602.69
2019-06-27T13:34:56.172Z,95611.58
2019-06-27T13:37:23.678Z,95606.31
2019-06-27T13:39:51.205Z,95606.53
2019-06-27T13:42:18.839Z,95603.52
2019-06-27T13:44:46.708Z,95603.72
2019-06-27T13:47:14.303Z,95597.90
2019-06-27T13:49:45.030Z,95601.63
2019-06-27T13:52:11.044Z,95591.31
2019-06-27T13:54:38.516Z,95600.17
2019-06-27T13:57:06.065Z,95597.31
2019-06-27T13:59:33.474Z,95588.72
2019-06-27T14:02:00.941Z,95592.58
2019-06-27T14:04:28.370Z,95591.31
2019-06-27T14:06:55.962Z,95585.81
2019-06-27T14:09:24.009Z,95583.08
2019-06-27T14:11:51.687Z,95583.38
2019-06-27T14:14:19.245Z,95580.73
2019-06-27T14:16:46.746Z,95589.59
2019-06-27T14:19:14.154Z,95579.17
2019-06-27T14:21:41.580Z,95586.02
2019-06-27T14:24:09.049Z,95592.53
2019-06-27T14:26:38.388Z,95592.83
2019-06-27T14:29:05.883Z,95602.70
2019-06-27T14:31:33.406Z,95579.94
2019-06-27T14:34:00.862Z,95578.64
2019-06-27T14:36:28.264Z,95571.63
2019-06-27T14:38:55.709Z,95581.98
2019-06-27T14:41:23.225Z,95574.84
2019-06-27T14:43:50.989Z,95564.33
2019-06-27T14:46:18.568Z,95579.78
2019-06-27T14:48:46.050Z,95588.30
2019-06-27T14:51:13.594Z,95577.20
2019-06-27T14:53:41.160Z,95571.39
2019-06-27T14:56:08.725Z,95579.17
2019-06-27T14:58:36.453Z,95571.89
2019-06-27T15:01:08.508Z,95581.41
2019-06-27T15:03:33.576Z,95574.84
2019-06-27T15:06:01.196Z,95562.31
2019-06-27T15:08:28.838Z,95559.05
2019-06-27T15:10:56.436Z,95569.49
2019-06-27T15:13:24.287Z,95558.14
2019-06-27T15:15:51.806Z,95560.28
2019-06-27T15:18:19.335Z,95556.77
2019-06-27T15:20:47.626Z,95559.38
2019-06-27T15:23:15.283Z,95558.58
2019-06-27T15:25:42.733Z,95558.81
2019-06-27T15:28:10.313Z,95561.69
2019-06-27T15:30:38.131Z,95557.48
2019-06-27T15:33:05.886Z,95560.38
2019-06-27T15:35:37.731Z,95551.91
2019-06-27T15:38:02.861Z,95555.22
2019-06-27T15:40:30.459Z,95553.02
2019-06-27T15:42:59.313Z,95563.41
2019-06-27T15:45:28.201Z,95546.78
2019-06-27T15:47:55.766Z,95555.44
2019-06-27T15:50:23.326Z,95553.77
2019-06-27T15:52:50.829Z,95538.27
2019-06-27T15:55:18.512Z,95541.50
2019-06-27T15:57:45.939Z,95542.29
2019-06-27T16:00:14.650Z,95560.67
2019-06-27T16:02:42.303Z,95531.41
2019-06-27T16:05:10.702Z,95530.66
2019-06-27T16:07:38.577Z,95533.16
2019-06-27T16:10:06.371Z,95534.97
2019-06-27T16:12:33.947Z,95545.79
2019-06-27T16:15:01.457Z,95539.81
2019-06-27T16:17:29.439Z,95533.69
2019-06-27T16:19:56.848Z,95537.58
2019-06-27T16:22:24.336Z,95532.92
2019-06-27T16:24:53.007Z,95533.38
2019-06-27T16:27:20.446Z,95532.55
2019-06-27T16:29:47.923Z,95529.86
2019-06-27T16:32:15.570Z,95539.36
2019-06-27T16:34:43.077Z,95534.70
2019-06-27T16:37:10.642Z,95535.16
2019-06-27T16:39:40.353Z,95539.30
2019-06-27T16:42:07.809Z,95534.46
2019-06-27T16:44:35.362Z,95541.59
2019-06-27T16:47:02.837Z,95537.67
2019-06-27T16:49:30.526Z,95545.66
2019-06-27T16:51:58.130Z,95544.09
2019-06-27T16:54:25.656Z,95547.87
2019-06-27T16:56:53.291Z,95564.59
2019-06-27T16:59:20.839Z,95556.06
2019-06-27T17:01:48.430Z,95554.99
2019-06-27T17:04:15.865Z,95544.08
2019-06-27T17:06:43.376Z,95548.09
2019-06-27T17:09:10.868Z,95540.76
2019-06-27T17:11:38.352Z,95551.86
2019-06-27T17:14:05.963Z,95561.42
2019-06-27T17:16:33.427Z,95553.59
2019-06-27T17:19:00.899Z,95559.61
2019-06-27T17:21:28.419Z,95559.19
2019-06-27T17:23:55.849Z,95575.39
2019-06-27T17:26:23.488Z,95561.94
2019-06-27T17:28:51.102Z,95572.11
2019-06-27T17:31:18.686Z,95580.22
2019-06-27T17:33:46.167Z,95576.72
2019-06-27T17:36:13.674Z,95587.44
2019-06-27T17:38:41.113Z,95583.55
2019-06-27T17:41:08.640Z,95575.55
2019-06-27T17:43:36.186Z,95590.20
2019-06-27T17:46:03.630Z,95584.44
2019-06-27T17:48:31.066Z,95581.92
2019-06-27T17:50:59.221Z,95588.50
2019-06-27T17:53:26.721Z,95596.56
2019-06-27T17:55:54.205Z,95596.89
2019-06-27T17:58:21.842Z,95597.02
2019-06-27T18:00:49.433Z,95595.41
2019-06-27T18:03:17.644Z,95591.70
2019-06-27T18:05:45.166Z,95602.94
2019-06-27T18:08:12.636Z,95598.44
2019-06-27T18:10:40.168Z,95605.84
2019-06-27T18:13:07.643Z,95615.41
2019-06-27T18:15:35.107Z,95611.48
2019-06-27T18:18:02.699Z,95607.33
2019-06-27T18:20:30.161Z,95600.88
2019-06-27T18:22:57.583Z,95599.34
2019-06-27T18:25:25.017Z,95599.81
2019-06-27T18:27:52.518Z,95606.52
2019-06-27T18:30:20.757Z,95605.97
2019-06-27T18:32:48.220Z,95609.77
2019-06-27T18:35:16.560Z,95615.47
2019-06-27T18:37:43.978Z,95605.12
2019-06-27T18:40:11.635Z,95617.43
2019-06-27T18:42:39.103Z,95617.05
2019-06-27T18:45:06.568Z,95616.34
2019-06-27T18:47:33.931Z,95617.09
2019-06-27T18:50:01.502Z,95619.34
2019-06-27T18:52:28.963Z,95626.73
2019-06-27T18:54:56.401Z,95626.31
2019-06-27T18:57:23.921Z,95624.83
2019-06-27T18:59:53.704Z,95625.27
2019-06-27T19:02:20.864Z,95619.47
2019-06-27T19:04:48.356Z,95632.09
2019-06-27T19:07:15.774Z,95629.36
2019-06-27T19:09:43.206Z,95634.84
2019-06-27T19:12:10.719Z,95642.39
2019-06-27T19:14:38.260Z,95651.94
2019-06-27T19:17:06.260Z,95641.87
2019-06-27T19:19:36.187Z,95646.19
2019-06-27T19:22:23.249Z,95651.11
2019-06-27T19:25:00.048Z,95650.43
2019-06-27T19:27:27.601Z,95667.10
2019-06-27T19:29:55.102Z,95653.59
2019-06-27T19:32:22.561Z,95670.76
2019-06-27T19:34:50.000Z,95675.11
2019-06-27T19:37:17.446Z,95671.20
2019-06-27T19:39:44.947Z,95679.23
2019-06-27T19:42:12.453Z,95676.88
2019-06-27T19:44:39.941Z,95680.08
2019-06-27T19:47:07.448Z,95682.84
2019-06-27T19:49:34.925Z,95689.28
2019-06-27T19:52:02.363Z,95703.89
2019-06-27T19:54:29.902Z,95700.50
2019-06-27T19:56:57.485Z,95695.64
2019-06-27T19:59:25.398Z,95695.64
2019-06-27T20:01:53.100Z,95690.88
2019-06-27T20:04:20.482Z,95699.03
2019-06-27T20:06:47.937Z,95716.34
2019-06-27T20:09:15.474Z,95727.97
2019-06-27T20:11:42.979Z,95715.05
2019-06-27T20:14:10.391Z,95714.73
2019-06-27T20:16:37.876Z,95714.76
2019-06-27T20:19:06.125Z,95723.13
2019-06-27T20:21:33.711Z,95707.84
2019-06-27T20:24:01.241Z,95718.97
2019-06-27T20:26:28.769Z,95712.88
2019-06-27T20:28:56.167Z,95719.05
2019-06-27T20:31:23.620Z,95728.02
2019-06-27T20:33:51.214Z,95719.62
2019-06-27T20:36:18.674Z,95728.13
2019-06-27T20:38:46.153Z,95725.03
2019-06-27T20:41:13.587Z,95726.05
2019-06-27T20:43:41.013Z,95729.68
2019-06-27T20:46:08.518Z,95731.27
2019-06-27T20:48:36.048Z,95737.20
2019-06-27T20:51:03.563Z,95729.56
2019-06-27T20:53:31.160Z,95738.54
2019-06-27T20:55:58.563Z,95753.15
2019-06-27T20:58:25.991Z,95755.43
2019-06-27T21:00:53.506Z,95754.92
2019-06-27T21:03:20.923Z,95755.73
2019-06-27T21:05:48.362Z,95747.85
2019-06-27T21:08:15.846Z,95741.02
2019-06-27T21:10:43.288Z,95752.26
2019-06-27T21:13:10.765Z,95754.20
2019-06-27T21:15:38.219Z,95757.53
2019-06-27T21:18:05.611Z,95755.81
2019-06-27T21:20:33.035Z,95748.73
2019-06-27T21:23:00.517Z,95763.11
2019-06-27T21:25:28.134Z,95760.00
2019-06-27T21:27:55.643Z,95759.06
2019-06-27T21:30:23.199Z,95775.05
2019-06-27T21:32:50.620Z,95768.30
2019-06-27T21:35:18.087Z,95768.97
2019-06-27T21:37:45.642Z,95772.08
2019-06-27T21:40:13.280Z,95777.16
2019-06-27T21:42:40.725Z,95770.45
2019-06-27T21:45:08.151Z,95778.75
2019-06-27T21:47:35.630Z,95768.25
2019-06-27T21:50:03.227Z,95783.58
2019-06-27T21:52:30.752Z,95774.68
2019-06-27T21:54:58.172Z,95777.02
2019-06-27T21:57:25.696Z,95772.30
2019-06-27T21:59:53.138Z,95775.59
2019-06-27T22:02:20.747Z,95761.09
2019-06-27T22:04:48.185Z,95768.69
2019-06-27T22:07:15.663Z,95777.44
2019-06-27T22:09:43.088Z,95780.96
2019-06-27T22:12:10.674Z,95773.19
2019-06-27T22:14:38.200Z,95772.50
2019-06-27T22:17:05.643Z,95768.38
2019-06-27T22:19:33.062Z,95771.03
2019-06-27T22:22:00.580Z,95764.06
2019-06-27T22:24:27.999Z,95759.94
2019-06-27T22:26:55.439Z,95771.92
2019-06-27T22:29:22.960Z,95766.09
2019-06-27T22:31:50.404Z,95771.70
2019-06-27T22:34:17.797Z,95767.73
2019-06-27T22:36:45.292Z,95761.75
2019-06-27T22:39:40.417Z,95761.75
2019-06-27T22:42:18.383Z,95764.41
2019-06-27T22:45:03.841Z,95770.63
2019-06-27T22:47:49.451Z,95758.98
2019-06-27T22:50:52.973Z,95761.51
2019-06-27T22:53:22.624Z,95761.14
2019-06-27T22:55:50.187Z,95756.80
2019-06-27T22:58:17.612Z,95757.69
2019-06-27T23:00:45.042Z,95760.55
2019-06-27T23:03:12.572Z,95754.36
2019-06-27T23:05:39.988Z,95758.70
2019-06-27T23:08:07.464Z,95759.77
2019-06-27T23:10:34.883Z,95757.85
2019-06-27T23:13:02.327Z,95867.97
2019-06-27T23:15:29.920Z,95765.31
2019-06-27T23:17:57.319Z,95760.78
2019-06-27T23:20:24.720Z,95744.64
2019-06-27T23:22:52.215Z,95753.78
2019-06-27T23:25:19.723Z,95766.76
2019-06-27T23:27:47.171Z,95755.39
2019-06-27T23:30:14.761Z,95767.84
2019-06-27T23:32:42.195Z,95767.84
2019-06-27T23:35:09.721Z,95759.95
2019-06-27T23:37:37.223Z,95766.97
2019-06-27T23:40:14.109Z,95761.61
2019-06-27T23:42:34.653Z,95761.61
2019-06-27T23:45:02.160Z,95765.53
2019-06-27T23:47:29.587Z,95745.07
2019-06-27T23:49:56.982Z,95745.07
2019-06-27T23:52:24.498Z,95775.05
2019-06-27T23:54:51.955Z,95762.64
2019-06-27T23:57:19.363Z,95762.42
2019-06-27T23:59:46.841Z,95755.82
